createdAt,value
2016-12-16T00:00:24.440Z,16.47
2016-12-16T00:00:52.538Z,16.4
2016-12-16T00:01:20.639Z,16.4
2016-12-16T00:01:48.982Z,16.37
2016-12-16T00:02:17.239Z,16.34
2016-12-16T00:02:45.269Z,16.36
2016-12-16T00:03:13.416Z,16.37
2016-12-16T00:04:24.559Z,16.29
2016-12-16T00:04:52.681Z,16.29
2016-12-16T00:05:20.849Z,16.26
2016-12-16T00:05:49.015Z,16.25
2016-12-16T00:06:17.232Z,16.28
2016-12-16T00:06:45.422Z,16.17
2016-12-16T00:07:13.617Z,16.21
2016-12-16T00:07:41.892Z,16.33
2016-12-16T00:08:10.152Z,16.21
2016-12-16T00:08:38.365Z,16.21
2016-12-16T00:09:06.717Z,16.25
2016-12-16T00:10:18.048Z,16.18
2016-12-16T00:10:46.257Z,16.26
2016-12-16T00:11:14.610Z,16.17
2016-12-16T00:11:42.959Z,16.21
2016-12-16T00:12:11.073Z,16.18
2016-12-16T00:12:39.259Z,16.17
2016-12-16T00:13:07.356Z,16.21
2016-12-16T00:13:35.702Z,16.17
2016-12-16T00:14:04.059Z,16.18
2016-12-16T00:14:32.267Z,16.18
2016-12-16T00:15:00.519Z,16.18
2016-12-16T00:16:11.850Z,16.18
2016-12-16T00:16:39.965Z,16.24
2016-12-16T00:17:08.135Z,16.25
2016-12-16T00:17:36.483Z,16.18
2016-12-16T00:18:04.692Z,16.32
2016-12-16T00:18:32.883Z,16.26
2016-12-16T00:19:00.978Z,16.28
2016-12-16T00:19:29.132Z,16.26
2016-12-16T00:19:57.300Z,16.17
2016-12-16T00:20:25.509Z,16.29
2016-12-16T00:20:53.669Z,16.26
2016-12-16T00:22:04.998Z,16.22
2016-12-16T00:22:33.198Z,16.22
2016-12-16T00:23:01.363Z,16.18
2016-12-16T00:23:29.623Z,16.29
2016-12-16T00:23:57.833Z,16.25
2016-12-16T00:24:25.933Z,16.25
2016-12-16T00:24:54.221Z,16.22
2016-12-16T00:25:22.563Z,16.18
2016-12-16T00:25:50.917Z,16.22
2016-12-16T00:26:19.219Z,16.25
2016-12-16T00:26:47.473Z,16.29
2016-12-16T00:27:58.706Z,16.28
2016-12-16T00:28:26.819Z,16.22
2016-12-16T00:28:55.174Z,16.28
2016-12-16T00:29:23.425Z,16.18
2016-12-16T00:29:51.637Z,16.28
2016-12-16T00:30:19.828Z,16.24
2016-12-16T00:30:47.923Z,16.14
2016-12-16T00:31:16.079Z,16.22
2016-12-16T00:31:44.435Z,16.17
2016-12-16T00:32:12.738Z,16.24
2016-12-16T00:32:40.706Z,16.26
2016-12-16T00:33:51.850Z,16.21
2016-12-16T00:34:19.963Z,16.18
2016-12-16T00:34:48.225Z,16.18
2016-12-16T00:35:16.728Z,16.17
2016-12-16T00:35:44.939Z,16.22
2016-12-16T00:36:13.125Z,16.25
2016-12-16T00:36:41.320Z,16.22
2016-12-16T00:37:09.568Z,16.21
2016-12-16T00:37:37.830Z,16.21
2016-12-16T00:38:05.950Z,16.22
2016-12-16T00:38:34.293Z,16.29
2016-12-16T00:39:45.530Z,16.14
2016-12-16T00:40:13.731Z,16.17
2016-12-16T00:40:42.082Z,16.09
2016-12-16T00:41:10.427Z,16.13
2016-12-16T00:41:38.635Z,16.13
2016-12-16T00:42:06.826Z,16.14
2016-12-16T00:42:35.111Z,16.16
2016-12-16T00:43:03.360Z,16.22
2016-12-16T00:43:31.620Z,16.09
2016-12-16T00:43:59.731Z,16.08
2016-12-16T00:44:40.758Z,16.08
2016-12-16T00:46:12.267Z,16.16
2016-12-16T00:46:40.562Z,16.16
2016-12-16T00:47:08.881Z,16.08
2016-12-16T00:47:37.046Z,16.18
2016-12-16T00:48:05.255Z,16.18
2016-12-16T00:48:33.445Z,16.13
2016-12-16T00:49:01.637Z,16.17
2016-12-16T00:49:29.895Z,16.17
2016-12-16T00:49:58.248Z,16.13
2016-12-16T00:50:26.550Z,16.14
2016-12-16T00:50:54.805Z,16.17
2016-12-16T00:52:05.946Z,16.21
2016-12-16T00:52:33.961Z,16.05
2016-12-16T00:53:02.217Z,16.18
2016-12-16T00:53:30.380Z,16.22
2016-12-16T00:53:58.683Z,16.08
2016-12-16T00:54:26.964Z,16.16
2016-12-16T00:54:55.055Z,16.22
2016-12-16T00:55:23.306Z,16.02
2016-12-16T00:55:51.570Z,16.13
2016-12-16T00:56:19.871Z,16.21
2016-12-16T00:56:48.223Z,16.13
2016-12-16T00:57:59.359Z,16.09
2016-12-16T00:58:27.568Z,16.1
2016-12-16T00:58:55.637Z,16.14
2016-12-16T00:59:23.706Z,16.16
2016-12-16T00:59:51.918Z,16.09
2016-12-16T01:00:20.102Z,16.14
2016-12-16T01:00:48.206Z,16.13
2016-12-16T01:01:16.363Z,16.08
2016-12-16T01:01:44.714Z,16.05
2016-12-16T01:02:12.925Z,16.05
2016-12-16T01:02:41.165Z,16
2016-12-16T01:03:52.405Z,16.03
2016-12-16T01:04:20.700Z,16.02
2016-12-16T01:04:48.959Z,16.05
2016-12-16T01:05:17.304Z,16.02
2016-12-16T01:05:45.516Z,16.03
2016-12-16T01:06:13.801Z,16
2016-12-16T01:06:42.195Z,15.99
2016-12-16T01:07:10.354Z,16.05
2016-12-16T01:07:38.616Z,16.02
2016-12-16T01:08:06.825Z,16.03
2016-12-16T01:08:35.072Z,16.02
2016-12-16T01:09:46.119Z,16.03
2016-12-16T01:10:14.233Z,15.99
2016-12-16T01:10:42.583Z,16.03
2016-12-16T01:11:10.841Z,16.06
2016-12-16T01:11:38.961Z,16.03
2016-12-16T01:12:07.057Z,15.98
2016-12-16T01:12:35.251Z,16.06
2016-12-16T01:13:03.500Z,16
2016-12-16T01:13:31.760Z,16
2016-12-16T01:13:59.978Z,15.99
2016-12-16T01:14:28.135Z,15.99
2016-12-16T01:15:39.189Z,16.09
2016-12-16T01:16:07.216Z,15.99
2016-12-16T01:16:35.387Z,16.03
2016-12-16T01:17:03.640Z,16.08
2016-12-16T01:17:31.761Z,16.03
2016-12-16T01:17:59.949Z,16
2016-12-16T01:18:28.046Z,16
2016-12-16T01:18:56.297Z,16
2016-12-16T01:19:24.649Z,16.02
2016-12-16T01:19:52.862Z,16
2016-12-16T01:20:21.114Z,15.99
2016-12-16T01:21:32.348Z,15.96
2016-12-16T01:22:00.460Z,16.09
2016-12-16T01:22:28.721Z,15.99
2016-12-16T01:22:56.891Z,15.98
2016-12-16T01:23:25.102Z,15.98
2016-12-16T01:23:53.389Z,15.96
2016-12-16T01:24:21.668Z,15.98
2016-12-16T01:24:49.735Z,16.05
2016-12-16T01:25:18.089Z,15.95
2016-12-16T01:25:46.213Z,16.02
2016-12-16T01:26:14.556Z,15.96
2016-12-16T01:27:25.889Z,16
2016-12-16T01:27:53.817Z,15.98
2016-12-16T01:28:22.167Z,15.99
2016-12-16T01:28:50.516Z,16
2016-12-16T01:29:18.720Z,15.98
2016-12-16T01:29:47.003Z,15.99
2016-12-16T01:30:15.282Z,16.05
2016-12-16T01:30:43.532Z,16.02
2016-12-16T01:31:11.886Z,15.98
2016-12-16T01:31:40.093Z,15.96
2016-12-16T01:32:08.340Z,15.99
2016-12-16T01:33:19.664Z,16.02
2016-12-16T01:33:47.687Z,15.98
2016-12-16T01:34:16.799Z,15.99
2016-12-16T01:34:45.057Z,15.99
2016-12-16T01:35:13.262Z,15.9
2016-12-16T01:35:41.449Z,15.9
2016-12-16T01:36:09.643Z,15.99
2016-12-16T01:36:37.883Z,15.95
2016-12-16T01:37:06.232Z,15.96
2016-12-16T01:37:34.536Z,15.95
2016-12-16T01:38:02.882Z,15.96
2016-12-16T01:39:14.115Z,15.95
2016-12-16T01:39:42.230Z,15.93
2016-12-16T01:40:10.575Z,16.03
2016-12-16T01:40:38.831Z,15.96
2016-12-16T01:41:07.043Z,16.03
2016-12-16T01:41:35.326Z,16.02
2016-12-16T01:42:03.610Z,16.02
2016-12-16T01:42:31.950Z,16
2016-12-16T01:43:00.297Z,15.99
2016-12-16T01:43:28.415Z,15.98
2016-12-16T01:43:56.565Z,15.99
2016-12-16T01:45:07.802Z,15.99
2016-12-16T01:45:36.004Z,15.99
2016-12-16T01:46:04.359Z,16.03
2016-12-16T01:46:32.710Z,15.99
2016-12-16T01:47:00.946Z,16.03
2016-12-16T01:47:29.044Z,15.95
2016-12-16T01:47:57.166Z,15.95
2016-12-16T01:48:25.484Z,15.98
2016-12-16T01:48:53.829Z,15.99
2016-12-16T01:49:22.038Z,15.95
2016-12-16T01:49:50.200Z,16.02
2016-12-16T01:51:01.524Z,16.03
2016-12-16T01:51:29.820Z,15.9
2016-12-16T01:51:58.076Z,15.99
2016-12-16T01:52:26.248Z,15.9
2016-12-16T01:52:54.460Z,16
2016-12-16T01:53:22.368Z,15.95
2016-12-16T01:53:50.568Z,15.93
2016-12-16T01:54:18.909Z,16.03
2016-12-16T01:54:47.262Z,15.99
2016-12-16T01:55:15.471Z,15.95
2016-12-16T01:55:43.627Z,15.99
2016-12-16T01:56:54.813Z,15.99
2016-12-16T01:57:29.403Z,15.99
2016-12-16T01:57:57.579Z,16
2016-12-16T01:58:25.807Z,16.02
2016-12-16T01:58:53.965Z,16.02
2016-12-16T01:59:22.130Z,16.02
2016-12-16T01:59:50.295Z,15.93
2016-12-16T02:00:18.448Z,15.95
2016-12-16T02:00:46.649Z,15.99
2016-12-16T02:01:14.821Z,16.03
2016-12-16T02:01:43.030Z,15.98
2016-12-16T02:02:54.371Z,15.96
2016-12-16T02:03:22.564Z,16
2016-12-16T02:03:50.744Z,16
2016-12-16T02:04:19.064Z,16.03
2016-12-16T02:04:47.325Z,15.99
2016-12-16T02:05:15.564Z,15.96
2016-12-16T02:05:43.802Z,15.99
2016-12-16T02:06:12.100Z,15.98
2016-12-16T02:06:40.310Z,16.05
2016-12-16T02:07:08.386Z,15.95
2016-12-16T02:07:36.501Z,16.03
2016-12-16T02:08:47.692Z,15.95
2016-12-16T02:09:15.945Z,15.98
2016-12-16T02:09:44.256Z,16
2016-12-16T02:10:12.468Z,15.96
2016-12-16T02:10:40.726Z,15.95
2016-12-16T02:11:08.867Z,16
2016-12-16T02:11:37.017Z,15.96
2016-12-16T02:12:04.979Z,16
2016-12-16T02:12:33.284Z,15.91
2016-12-16T02:13:01.363Z,15.9
2016-12-16T02:13:29.477Z,15.91
2016-12-16T02:14:40.664Z,15.95
2016-12-16T02:15:08.823Z,15.91
2016-12-16T02:15:37.038Z,15.93
2016-12-16T02:16:05.342Z,15.88
2016-12-16T02:16:33.509Z,15.93
2016-12-16T02:17:01.558Z,15.91
2016-12-16T02:17:29.611Z,15.91
2016-12-16T02:17:57.821Z,15.93
2016-12-16T02:18:26.042Z,15.91
2016-12-16T02:18:54.019Z,15.81
2016-12-16T02:19:22.319Z,15.83
2016-12-16T02:20:33.503Z,15.91
2016-12-16T02:21:01.660Z,15.85
2016-12-16T02:21:29.873Z,15.84
2016-12-16T02:21:58.186Z,15.9
2016-12-16T02:22:26.441Z,15.85
2016-12-16T02:22:54.490Z,15.85
2016-12-16T02:23:22.664Z,15.83
2016-12-16T02:23:50.864Z,15.87
2016-12-16T02:24:19.170Z,15.84
2016-12-16T02:24:47.429Z,15.87
2016-12-16T02:25:15.724Z,15.84
2016-12-16T02:26:26.819Z,15.84
2016-12-16T02:26:54.887Z,15.84
2016-12-16T02:27:23.006Z,15.87
2016-12-16T02:27:51.126Z,15.81
2016-12-16T02:28:19.291Z,15.78
2016-12-16T02:28:47.432Z,15.83
2016-12-16T02:29:15.675Z,15.85
2016-12-16T02:29:43.973Z,15.87
2016-12-16T02:30:12.279Z,15.9
2016-12-16T02:30:40.353Z,15.91
2016-12-16T02:31:08.472Z,15.85
2016-12-16T02:32:19.565Z,15.9
2016-12-16T02:32:47.632Z,15.93
2016-12-16T02:33:15.936Z,15.91
2016-12-16T02:33:44.242Z,15.95
2016-12-16T02:34:12.409Z,15.96
2016-12-16T02:34:40.463Z,15.95
2016-12-16T02:35:08.615Z,15.91
2016-12-16T02:35:36.634Z,15.85
2016-12-16T02:36:04.760Z,15.9
2016-12-16T02:36:32.831Z,15.93
2016-12-16T02:37:01.041Z,15.88
2016-12-16T02:38:12.230Z,15.95
2016-12-16T02:38:40.387Z,15.91
2016-12-16T02:39:08.605Z,15.88
2016-12-16T02:39:36.725Z,15.91
2016-12-16T02:40:04.986Z,15.93
2016-12-16T02:40:33.038Z,15.95
2016-12-16T02:41:01.276Z,15.91
2016-12-16T02:41:29.481Z,15.88
2016-12-16T02:41:57.782Z,15.95
2016-12-16T02:42:25.953Z,15.91
2016-12-16T02:42:54.066Z,15.91
2016-12-16T02:44:05.260Z,15.91
2016-12-16T02:44:33.330Z,15.91
2016-12-16T02:45:01.632Z,15.99
2016-12-16T02:45:29.849Z,15.85
2016-12-16T02:45:58.109Z,15.9
2016-12-16T02:46:26.254Z,15.96
2016-12-16T02:46:54.303Z,15.93
2016-12-16T02:47:22.416Z,15.88
2016-12-16T02:47:50.722Z,15.91
2016-12-16T02:48:18.889Z,15.98
2016-12-16T02:48:47.009Z,15.91
2016-12-16T02:49:58.300Z,15.95
2016-12-16T02:50:26.548Z,15.96
2016-12-16T02:50:54.764Z,15.93
2016-12-16T02:51:23.072Z,15.96
2016-12-16T02:51:51.234Z,15.81
2016-12-16T02:52:19.099Z,15.85
2016-12-16T02:52:47.179Z,15.9
2016-12-16T02:53:15.292Z,15.9
2016-12-16T02:53:43.598Z,15.81
2016-12-16T02:54:11.766Z,15.95
2016-12-16T02:54:39.971Z,15.9
2016-12-16T02:55:51.256Z,15.95
2016-12-16T02:56:19.509Z,15.95
2016-12-16T02:56:47.820Z,15.91
2016-12-16T02:57:16.030Z,15.95
2016-12-16T02:57:44.194Z,15.9
2016-12-16T02:58:12.244Z,15.88
2016-12-16T02:58:40.201Z,15.95
2016-12-16T02:59:08.404Z,15.88
2016-12-16T02:59:36.526Z,16
2016-12-16T03:00:04.786Z,15.91
2016-12-16T03:00:32.995Z,15.9
2016-12-16T03:01:44.094Z,15.98
2016-12-16T03:02:12.345Z,15.87
2016-12-16T03:02:40.655Z,15.99
2016-12-16T03:03:08.867Z,15.98
2016-12-16T03:03:37.123Z,16
2016-12-16T03:04:05.362Z,15.96
2016-12-16T03:04:33.408Z,15.98
2016-12-16T03:05:01.700Z,15.99
2016-12-16T03:05:29.729Z,15.96
2016-12-16T03:05:57.890Z,15.99
2016-12-16T03:06:26.192Z,16.02
2016-12-16T03:07:37.477Z,15.98
2016-12-16T03:08:05.729Z,15.96
2016-12-16T03:08:33.945Z,15.91
2016-12-16T03:09:02.251Z,16.02
2016-12-16T03:09:30.415Z,15.9
2016-12-16T03:09:58.469Z,15.91
2016-12-16T03:10:26.707Z,15.9
2016-12-16T03:10:54.905Z,16.03
2016-12-16T03:11:23.209Z,15.99
2016-12-16T03:11:51.376Z,15.99
2016-12-16T03:12:19.584Z,15.96
2016-12-16T03:13:30.865Z,15.98
2016-12-16T03:13:59.024Z,16.05
2016-12-16T03:14:27.241Z,15.98
2016-12-16T03:14:55.460Z,16.02
2016-12-16T03:15:23.720Z,16.03
2016-12-16T03:15:51.957Z,15.96
2016-12-16T03:16:20.008Z,15.98
2016-12-16T03:16:48.122Z,15.99
2016-12-16T03:17:16.245Z,15.96
2016-12-16T03:17:44.506Z,16.02
2016-12-16T03:18:12.808Z,15.99
2016-12-16T03:19:24.008Z,16.03
2016-12-16T03:19:52.177Z,16
2016-12-16T03:20:20.389Z,16.03
2016-12-16T03:20:48.601Z,16.03
2016-12-16T03:21:16.766Z,16.02
2016-12-16T03:21:44.922Z,16
2016-12-16T03:22:13.063Z,16.03
2016-12-16T03:22:41.269Z,16.05
2016-12-16T03:23:09.393Z,16.05
2016-12-16T03:23:37.653Z,16.02
2016-12-16T03:24:05.956Z,16.06
2016-12-16T03:25:17.239Z,16.09
2016-12-16T03:25:45.213Z,16.16
2016-12-16T03:26:13.514Z,16.09
2016-12-16T03:26:41.726Z,16.06
2016-12-16T03:27:09.886Z,16.06
2016-12-16T03:27:37.854Z,16.09
2016-12-16T03:28:06.000Z,16.14
2016-12-16T03:28:34.107Z,16.05
2016-12-16T03:29:02.321Z,16.09
2016-12-16T03:29:30.485Z,16.21
2016-12-16T03:29:58.724Z,16.14
2016-12-16T03:31:09.911Z,16.08
2016-12-16T03:31:38.159Z,16.08
2016-12-16T03:32:06.374Z,16.13
2016-12-16T03:32:34.586Z,16.08
2016-12-16T03:33:02.845Z,16.14
2016-12-16T03:33:30.803Z,16.17
2016-12-16T03:33:58.949Z,16.09
2016-12-16T03:34:27.060Z,16.13
2016-12-16T03:34:55.369Z,16.14
2016-12-16T03:35:23.351Z,16.14
2016-12-16T03:35:51.465Z,16.16
2016-12-16T03:37:02.746Z,16.14
2016-12-16T03:37:30.907Z,16.16
2016-12-16T03:37:59.216Z,16.1
2016-12-16T03:38:27.243Z,16.18
2016-12-16T03:38:55.501Z,16.17
2016-12-16T03:39:23.642Z,16.14
2016-12-16T03:39:51.789Z,16.13
2016-12-16T03:40:20.028Z,16.13
2016-12-16T03:40:48.336Z,16.1
2016-12-16T03:41:16.419Z,16.18
2016-12-16T03:41:44.720Z,16.21
2016-12-16T03:42:56.005Z,16.14
2016-12-16T03:43:24.166Z,16.18
2016-12-16T03:43:52.391Z,16.08
2016-12-16T03:44:20.694Z,16.13
2016-12-16T03:44:48.861Z,16.13
2016-12-16T03:45:17.005Z,16.13
2016-12-16T03:45:45.154Z,16.14
2016-12-16T03:46:13.269Z,16.16
2016-12-16T03:46:41.577Z,16.17
2016-12-16T03:47:09.653Z,16.1
2016-12-16T03:47:37.800Z,16.14
2016-12-16T03:48:49.085Z,16.22
2016-12-16T03:49:17.052Z,16.14
2016-12-16T03:49:45.264Z,16.14
2016-12-16T03:50:13.573Z,16.14
2016-12-16T03:50:41.648Z,16.14
2016-12-16T03:51:09.800Z,16.13
2016-12-16T03:51:37.854Z,16.18
2016-12-16T03:52:06.062Z,16.17
2016-12-16T03:52:34.087Z,16.18
2016-12-16T03:53:02.258Z,16.17
2016-12-16T03:53:30.376Z,16.17
2016-12-16T03:54:41.565Z,16.18
2016-12-16T03:55:09.542Z,16.05
2016-12-16T03:55:37.665Z,16.1
2016-12-16T03:56:05.873Z,16.08
2016-12-16T03:56:34.037Z,16.06
2016-12-16T03:57:02.182Z,16.21
2016-12-16T03:57:30.423Z,16.17
2016-12-16T03:57:58.536Z,16.08
2016-12-16T03:58:26.840Z,16.13
2016-12-16T03:58:54.824Z,16.17
2016-12-16T03:59:23.032Z,16.08
2016-12-16T04:00:34.217Z,16.09
2016-12-16T04:01:02.376Z,16.22
2016-12-16T04:01:30.504Z,16.13
2016-12-16T04:01:58.810Z,16.22
2016-12-16T04:02:27.071Z,16.16
2016-12-16T04:02:55.216Z,16.1
2016-12-16T04:03:23.272Z,16.16
2016-12-16T04:03:51.389Z,16.08
2016-12-16T04:04:19.603Z,16.16
2016-12-16T04:04:47.864Z,16.13
2016-12-16T04:05:16.167Z,16.14
2016-12-16T04:06:27.358Z,16.14
2016-12-16T04:06:55.548Z,16.09
2016-12-16T04:07:23.643Z,16.17
2016-12-16T04:07:51.860Z,16.13
2016-12-16T04:08:19.930Z,16.13
2016-12-16T04:08:48.170Z,16.16
2016-12-16T04:09:16.222Z,16.08
2016-12-16T04:09:44.337Z,16.1
2016-12-16T04:10:12.548Z,16.06
2016-12-16T04:10:40.812Z,16.13
2016-12-16T04:11:08.924Z,16.02
2016-12-16T04:12:20.113Z,16.06
2016-12-16T04:12:48.274Z,16.02
2016-12-16T04:13:16.491Z,15.99
2016-12-16T04:13:44.706Z,15.99
2016-12-16T04:14:12.690Z,16.03
2016-12-16T04:14:40.927Z,16
2016-12-16T04:15:08.895Z,16
2016-12-16T04:15:36.917Z,16.02
2016-12-16T04:16:05.042Z,16.03
2016-12-16T04:16:33.208Z,16.03
2016-12-16T04:17:01.332Z,15.99
2016-12-16T04:18:12.520Z,16.02
2016-12-16T04:18:40.492Z,16.02
2016-12-16T04:19:08.707Z,15.99
2016-12-16T04:19:36.910Z,15.96
2016-12-16T04:20:05.076Z,16.06
2016-12-16T04:20:33.129Z,16.03
2016-12-16T04:21:01.371Z,16
2016-12-16T04:21:29.480Z,15.99
2016-12-16T04:21:57.603Z,16.03
2016-12-16T04:22:25.771Z,15.98
2016-12-16T04:22:54.068Z,15.99
2016-12-16T04:24:05.352Z,16.02
2016-12-16T04:24:33.603Z,15.96
2016-12-16T04:25:01.818Z,16.06
2016-12-16T04:25:29.939Z,15.99
2016-12-16T04:25:58.108Z,16.09
2016-12-16T04:26:26.256Z,16.06
2016-12-16T04:26:54.404Z,16.02
2016-12-16T04:27:22.514Z,16.05
2016-12-16T04:27:50.728Z,15.98
2016-12-16T04:28:18.893Z,16.05
2016-12-16T04:28:46.912Z,16.03
2016-12-16T04:29:58.009Z,16.09
2016-12-16T04:30:26.170Z,16.02
2016-12-16T04:30:54.292Z,15.99
2016-12-16T04:31:22.440Z,15.96
2016-12-16T04:31:50.513Z,16.02
2016-12-16T04:32:18.751Z,15.99
2016-12-16T04:32:46.897Z,16.08
2016-12-16T04:33:14.918Z,16
2016-12-16T04:33:43.136Z,16
2016-12-16T04:34:11.390Z,16
2016-12-16T04:34:39.600Z,16.02
2016-12-16T04:35:50.887Z,16.1
2016-12-16T04:36:18.951Z,15.98
2016-12-16T04:36:46.889Z,16
2016-12-16T04:37:15.200Z,16.03
2016-12-16T04:37:43.357Z,16.05
2016-12-16T04:38:11.407Z,16.06
2016-12-16T04:38:39.464Z,16
2016-12-16T04:39:07.575Z,16.06
2016-12-16T04:39:35.792Z,16
2016-12-16T04:40:03.959Z,16.03
2016-12-16T04:40:32.078Z,16.03
2016-12-16T04:41:43.274Z,16.09
2016-12-16T04:42:11.527Z,16.02
2016-12-16T04:42:39.842Z,16.02
2016-12-16T04:43:08.146Z,16.03
2016-12-16T04:43:36.310Z,16.02
2016-12-16T04:44:04.360Z,16.03
2016-12-16T04:44:32.504Z,16.03
2016-12-16T04:45:00.707Z,16
2016-12-16T04:45:29.006Z,16.05
2016-12-16T04:45:57.171Z,16
2016-12-16T04:46:25.384Z,16.02
2016-12-16T04:47:36.667Z,16
2016-12-16T04:48:04.919Z,15.99
2016-12-16T04:48:33.230Z,16.03
2016-12-16T04:49:01.532Z,15.96
2016-12-16T04:49:29.701Z,16.06
2016-12-16T04:49:57.844Z,15.98
2016-12-16T04:50:26.086Z,16
2016-12-16T04:50:54.291Z,16.03
2016-12-16T04:51:22.511Z,15.95
2016-12-16T04:51:50.680Z,15.98
2016-12-16T04:52:18.890Z,15.99
2016-12-16T04:53:30.082Z,16.05
2016-12-16T04:53:58.243Z,15.99
2016-12-16T04:54:26.458Z,16.08
2016-12-16T04:54:54.675Z,15.99
2016-12-16T04:55:22.931Z,15.99
2016-12-16T04:55:51.076Z,15.95
2016-12-16T04:56:19.312Z,15.98
2016-12-16T04:56:47.606Z,15.96
2016-12-16T04:57:15.821Z,16.05
2016-12-16T04:57:43.892Z,16
2016-12-16T04:58:12.100Z,16
2016-12-16T04:59:23.292Z,16
2016-12-16T04:59:51.453Z,15.91
2016-12-16T05:00:19.762Z,16.02
2016-12-16T05:00:47.900Z,15.99
2016-12-16T05:01:15.884Z,16.02
2016-12-16T05:01:44.142Z,15.99
2016-12-16T05:02:12.219Z,15.99
2016-12-16T05:02:40.427Z,15.93
2016-12-16T05:03:08.653Z,15.95
2016-12-16T05:03:36.912Z,16
2016-12-16T05:04:04.931Z,15.88
2016-12-16T05:05:16.160Z,15.95
2016-12-16T05:05:44.245Z,15.95
2016-12-16T05:06:12.377Z,15.9
2016-12-16T05:06:40.528Z,15.91
2016-12-16T05:07:08.794Z,15.95
2016-12-16T05:07:36.865Z,15.91
2016-12-16T05:08:05.030Z,15.91
2016-12-16T05:08:33.139Z,15.91
2016-12-16T05:09:01.358Z,15.83
2016-12-16T05:09:29.518Z,15.93
2016-12-16T05:09:57.722Z,15.87
2016-12-16T05:11:09.052Z,15.83
2016-12-16T05:11:37.136Z,15.81
2016-12-16T05:12:05.374Z,15.81
2016-12-16T05:12:33.610Z,15.84
2016-12-16T05:13:01.875Z,15.83
2016-12-16T05:13:29.950Z,15.8
2016-12-16T05:13:58.115Z,15.88
2016-12-16T05:14:26.417Z,15.87
2016-12-16T05:14:54.545Z,15.83
2016-12-16T05:15:22.525Z,15.87
2016-12-16T05:15:50.822Z,15.88
2016-12-16T05:17:02.150Z,15.84
2016-12-16T05:17:30.231Z,15.84
2016-12-16T05:17:58.554Z,15.84
2016-12-16T05:18:26.701Z,15.85
2016-12-16T05:18:54.872Z,15.84
2016-12-16T05:19:22.847Z,15.78
2016-12-16T05:19:51.009Z,15.84
2016-12-16T05:20:19.035Z,15.83
2016-12-16T05:20:47.347Z,15.84
2016-12-16T05:21:15.517Z,15.83
2016-12-16T05:21:43.821Z,15.83
2016-12-16T05:22:55.135Z,15.8
2016-12-16T05:23:23.306Z,15.78
2016-12-16T05:23:51.627Z,15.77
2016-12-16T05:24:19.775Z,15.78
2016-12-16T05:24:47.951Z,15.78
2016-12-16T05:25:16.112Z,15.77
2016-12-16T05:25:44.186Z,15.72
2016-12-16T05:26:12.487Z,15.8
2016-12-16T05:26:40.703Z,15.81
2016-12-16T05:27:08.779Z,15.8
2016-12-16T05:27:36.972Z,15.76
2016-12-16T05:28:48.203Z,15.73
2016-12-16T05:29:16.272Z,15.77
2016-12-16T05:29:44.315Z,15.8
2016-12-16T05:30:12.645Z,15.78
2016-12-16T05:30:40.915Z,15.78
2016-12-16T05:31:09.107Z,15.76
2016-12-16T05:31:37.380Z,15.78
2016-12-16T05:32:05.671Z,15.76
2016-12-16T05:32:33.881Z,15.77
2016-12-16T05:33:02.048Z,15.76
2016-12-16T05:33:30.782Z,15.69
2016-12-16T05:34:41.922Z,15.72
2016-12-16T05:35:09.989Z,15.76
2016-12-16T05:35:38.154Z,15.8
2016-12-16T05:36:06.389Z,15.76
2016-12-16T05:36:34.658Z,15.78
2016-12-16T05:37:02.860Z,15.78
2016-12-16T05:37:31.129Z,15.83
2016-12-16T05:37:59.320Z,15.78
2016-12-16T05:38:27.633Z,15.76
2016-12-16T05:38:55.894Z,15.76
2016-12-16T05:39:24.084Z,15.72
2016-12-16T05:40:35.224Z,15.72
2016-12-16T05:41:03.294Z,15.76
2016-12-16T05:41:31.427Z,15.7
2016-12-16T05:41:59.754Z,15.72
2016-12-16T05:42:27.931Z,15.7
2016-12-16T05:42:56.027Z,15.72
2016-12-16T05:43:24.298Z,15.7
2016-12-16T05:43:52.399Z,15.7
2016-12-16T05:44:20.708Z,15.72
2016-12-16T05:44:48.967Z,15.7
2016-12-16T05:45:17.256Z,15.72
2016-12-16T05:46:28.488Z,15.72
2016-12-16T05:46:56.559Z,15.65
2016-12-16T05:47:24.797Z,15.66
2016-12-16T05:47:53.120Z,15.69
2016-12-16T05:48:21.298Z,15.69
2016-12-16T05:48:49.371Z,15.62
2016-12-16T05:49:17.350Z,15.63
2016-12-16T05:49:45.524Z,15.66
2016-12-16T05:50:13.750Z,15.7
2016-12-16T05:50:41.821Z,15.69
2016-12-16T05:51:10.116Z,15.72
2016-12-16T05:52:21.257Z,15.72
2016-12-16T05:52:49.525Z,15.65
2016-12-16T05:53:17.662Z,15.56
2016-12-16T05:53:45.742Z,15.62
2016-12-16T05:54:14.620Z,15.66
2016-12-16T05:54:42.789Z,15.62
2016-12-16T05:55:10.955Z,15.54
2016-12-16T05:55:39.129Z,15.56
2016-12-16T05:56:07.447Z,15.59
2016-12-16T05:56:35.612Z,15.62
2016-12-16T05:57:03.900Z,15.59
2016-12-16T05:58:15.122Z,15.63
2016-12-16T05:58:43.394Z,15.65
2016-12-16T05:59:11.710Z,15.62
2016-12-16T05:59:39.941Z,15.58
2016-12-16T06:00:08.120Z,15.58
2016-12-16T06:00:36.383Z,15.59
2016-12-16T06:01:04.361Z,15.59
2016-12-16T06:01:32.535Z,15.6
2016-12-16T06:02:00.485Z,15.54
2016-12-16T06:02:28.645Z,15.52
2016-12-16T06:02:56.932Z,15.5
2016-12-16T06:04:08.069Z,15.52
2016-12-16T06:04:36.339Z,15.56
2016-12-16T06:05:04.568Z,15.58
2016-12-16T06:05:32.706Z,15.58
2016-12-16T06:06:00.790Z,15.58
2016-12-16T06:06:28.960Z,15.54
2016-12-16T06:06:57.034Z,15.56
2016-12-16T06:07:25.208Z,15.56
2016-12-16T06:07:53.430Z,15.54
2016-12-16T06:08:21.597Z,15.56
2016-12-16T06:08:49.794Z,15.56
2016-12-16T06:10:01.112Z,15.58
2016-12-16T06:10:29.384Z,15.52
2016-12-16T06:10:57.611Z,15.56
2016-12-16T06:11:25.842Z,15.56
2016-12-16T06:11:54.020Z,15.6
2016-12-16T06:12:22.189Z,15.56
2016-12-16T06:12:50.355Z,15.54
2016-12-16T06:13:18.621Z,15.52
2016-12-16T06:13:46.749Z,15.56
2016-12-16T06:14:14.821Z,15.5
2016-12-16T06:14:43.106Z,15.58
2016-12-16T06:15:54.331Z,15.52
2016-12-16T06:16:22.512Z,15.47
2016-12-16T06:16:50.738Z,15.52
2016-12-16T06:17:18.876Z,15.52
2016-12-16T06:17:47.148Z,15.5
2016-12-16T06:18:15.228Z,15.48
2016-12-16T06:18:43.396Z,15.5
2016-12-16T06:19:11.572Z,15.51
2016-12-16T06:19:39.796Z,15.44
2016-12-16T06:20:07.960Z,15.5
2016-12-16T06:20:36.154Z,15.47
2016-12-16T06:21:47.472Z,15.48
2016-12-16T06:22:15.742Z,15.48
2016-12-16T06:22:44.058Z,15.47
2016-12-16T06:23:12.195Z,15.47
2016-12-16T06:23:40.369Z,15.5
2016-12-16T06:24:08.632Z,15.44
2016-12-16T06:24:36.894Z,15.56
2016-12-16T06:25:04.887Z,15.48
2016-12-16T06:25:33.201Z,15.47
2016-12-16T06:26:01.176Z,15.5
2016-12-16T06:26:29.373Z,15.52
2016-12-16T06:27:40.504Z,15.44
2016-12-16T06:28:08.675Z,15.45
2016-12-16T06:28:37.004Z,15.51
2016-12-16T06:29:05.238Z,15.44
2016-12-16T06:29:33.229Z,15.47
2016-12-16T06:30:01.497Z,15.48
2016-12-16T06:30:29.569Z,15.5
2016-12-16T06:30:57.656Z,15.47
2016-12-16T06:31:25.974Z,15.45
2016-12-16T06:31:54.137Z,15.48
2016-12-16T06:32:22.429Z,15.44
2016-12-16T06:33:33.750Z,15.52
2016-12-16T06:34:01.926Z,15.5
2016-12-16T06:34:29.972Z,15.44
2016-12-16T06:34:58.203Z,15.51
2016-12-16T06:35:26.473Z,15.47
2016-12-16T06:35:54.457Z,15.51
2016-12-16T06:36:22.623Z,15.47
2016-12-16T06:36:50.800Z,15.45
2016-12-16T06:37:19.023Z,15.45
2016-12-16T06:37:47.115Z,15.47
2016-12-16T06:38:15.216Z,15.43
2016-12-16T06:39:26.535Z,15.45
2016-12-16T06:39:54.807Z,15.41
2016-12-16T06:40:23.036Z,15.44
2016-12-16T06:40:51.360Z,15.44
2016-12-16T06:41:19.541Z,15.5
2016-12-16T06:41:47.712Z,15.43
2016-12-16T06:42:15.878Z,15.48
2016-12-16T06:42:44.055Z,15.43
2016-12-16T06:43:12.288Z,15.48
2016-12-16T06:43:40.447Z,15.44
2016-12-16T06:44:08.736Z,15.47
2016-12-16T06:45:20.053Z,15.48
2016-12-16T06:45:48.325Z,15.5
2016-12-16T06:46:16.744Z,15.45
2016-12-16T06:46:45.048Z,15.44
2016-12-16T06:47:13.318Z,15.43
2016-12-16T06:47:41.492Z,15.47
2016-12-16T06:48:09.749Z,15.48
2016-12-16T06:48:37.740Z,15.45
2016-12-16T06:49:05.875Z,15.41
2016-12-16T06:49:33.853Z,15.47
2016-12-16T06:50:02.148Z,15.45
2016-12-16T06:51:13.469Z,15.44
2016-12-16T06:51:41.645Z,15.48
2016-12-16T06:52:09.786Z,15.45
2016-12-16T06:52:37.828Z,15.48
2016-12-16T06:53:05.936Z,15.45
2016-12-16T06:53:34.107Z,15.47
2016-12-16T06:54:02.177Z,15.47
2016-12-16T06:54:30.257Z,15.48
2016-12-16T06:54:58.575Z,15.41
2016-12-16T06:55:26.642Z,15.47
2016-12-16T06:55:54.838Z,15.5
2016-12-16T06:57:06.160Z,15.44
2016-12-16T06:57:34.152Z,15.44